Time;durP1;ratioP1;P1;durP2;ratioP2;P2;SDS_P1;SDS_P2;PMS_P1;PMS_P2;Temp;Humidity;BMP_temperature;BMP_pressure;BME280_temperature;BME280_humidity;BME280_pressure;Samples;Min_cycle;Max_cycle;Signal;HPM_P1;HPM_P2
2022/12/28 00:00:13;;;;;;;7.80;3.40;;;;;;;1.88;75.31;102051.60;108347;1261;73692;-79
2022/12/28 00:03:02;;;;;;;10.30;3.40;;;;;;;1.89;74.63;102051.59;108569;1255;62177;-78
2022/12/28 00:05:31;;;;;;;7.30;3.20;;;;;;;1.91;74.67;102056.36;108355;1253;60078;-79
2022/12/28 00:08:00;;;;;;;8.20;3.10;;;;;;;1.95;74.14;102059.90;108421;1254;73275;-81
2022/12/28 00:10:30;;;;;;;4.60;1.90;;;;;;;1.99;74.03;102062.61;108311;1254;60260;-79
2022/12/28 00:13:18;;;;;;;7.10;3.10;;;;;;;2.06;73.01;102066.61;108204;1261;61591;-79
2022/12/28 00:15:47;;;;;;;8.00;3.00;;;;;;;2.09;73.40;102068.29;108387;1266;63607;-80
2022/12/28 00:18:16;;;;;;;2.50;1.60;;;;;;;2.15;72.83;102068.19;108462;1255;61488;-78
2022/12/28 00:20:59;;;;;;;6.30;2.40;;;;;;;2.19;72.09;102072.44;108415;1258;69491;-79
2022/12/28 00:23:29;;;;;;;5.30;2.40;;;;;;;2.13;72.38;102071.14;108227;1260;73414;-79
2022/12/28 00:26:13;;;;;;;4.90;2.60;;;;;;;2.11;72.07;102074.96;108225;1259;60159;-80
2022/12/28 00:28:42;;;;;;;5.80;2.90;;;;;;;2.07;72.08;102069.18;108339;1257;60382;-80
2022/12/28 00:31:11;;;;;;;3.90;1.80;;;;;;;2.09;71.95;102080.15;108160;1258;74982;-79
2022/12/28 00:33:41;;;;;;;5.90;2.30;;;;;;;2.09;71.85;102081.35;108388;1257;61167;-80
2022/12/28 00:36:14;;;;;;;6.20;2.20;;;;;;;2.09;71.47;102081.17;108195;1257;59131;-81
2022/12/28 00:38:43;;;;;;;4.30;2.60;;;;;;;2.07;71.87;102083.96;108188;1255;73208;-80
2022/12/28 00:41:12;;;;;;;5.70;2.40;;;;;;;2.03;71.26;102086.94;108250;1260;58286;-81
2022/12/28 00:43:44;;;;;;;5.40;2.30;;;;;;;2.03;71.48;102086.08;108276;1260;57640;-80
2022/12/28 00:46:13;;;;;;;3.50;2.50;;;;;;;1.99;71.31;102084.60;108154;1264;63762;-81
2022/12/28 00:48:43;;;;;;;4.80;2.70;;;;;;;1.99;71.46;102080.65;108338;1252;72198;-80
2022/12/28 00:51:16;;;;;;;7.00;3.00;;;;;;;1.99;71.36;102080.64;108261;1254;59592;-80
2022/12/28 00:53:45;;;;;;;5.90;3.00;;;;;;;1.99;71.57;102078.41;108261;1255;62387;-80
2022/12/28 00:56:20;;;;;;;5.60;2.50;;;;;;;1.98;71.39;102076.71;108223;1258;62068;-79
2022/12/28 00:58:49;;;;;;;6.80;3.10;;;;;;;1.97;71.58;102074.65;108173;1258;60762;-81
2022/12/28 01:01:20;;;;;;;7.70;3.40;;;;;;;1.94;71.54;102073.34;108198;1253;74799;-78
2022/12/28 01:03:51;;;;;;;8.70;2.90;;;;;;;1.91;72.15;102069.93;108448;1255;71563;-81
2022/12/28 01:06:20;;;;;;;4.20;2.50;;;;;;;1.87;72.03;102072.23;108164;1260;68691;-78
2022/12/28 01:08:49;;;;;;;3.40;2.20;;;;;;;1.85;71.15;102068.81;108387;1258;74153;-80
2022/12/28 01:11:23;;;;;;;5.20;2.30;;;;;;;1.81;71.01;102069.73;108401;1261;59373;-78
2022/12/28 01:13:57;;;;;;;3.00;1.90;;;;;;;1.81;71.48;102069.73;108403;1264;61616;-81
2022/12/28 01:16:33;;;;;;;6.90;2.60;;;;;;;1.81;70.81;102066.13;108215;1256;74787;-79
2022/12/28 01:19:05;;;;;;;9.20;3.90;;;;;;;1.75;71.44;102065.37;108349;1256;71890;-79
2022/12/28 01:21:35;;;;;;;5.50;3.00;;;;;;;1.76;73.05;102070.33;108329;1260;59025;-80
2022/12/28 01:24:06;;;;;;;6.00;2.90;;;;;;;1.81;74.09;102067.15;108314;1264;63192;-79
2022/12/28 01:26:35;;;;;;;3.90;2.30;;;;;;;1.81;73.32;102062.52;108171;1264;57807;-79
2022/12/28 01:29:04;;;;;;;5.20;2.40;;;;;;;1.74;72.88;102062.61;108406;1254;60305;-78
2022/12/28 01:31:33;;;;;;;9.20;2.60;;;;;;;1.66;72.58;102060.33;108348;1266;62891;-79
2022/12/28 01:34:02;;;;;;;6.10;2.40;;;;;;;1.60;73.21;102059.56;108359;1255;70335;-80
2022/12/28 01:36:33;;;;;;;5.60;2.50;;;;;;;1.55;73.08;102054.80;108202;1261;68625;-80
2022/12/28 01:39:09;;;;;;;7.10;3.00;;;;;;;1.46;72.86;102051.15;108249;1260;63174;-79
2022/12/28 01:41:41;;;;;;;5.50;3.20;;;;;;;1.32;73.47;102050.98;108144;1262;58274;-79
2022/12/28 01:44:12;;;;;;;7.10;2.60;;;;;;;1.18;74.96;102055.80;108232;1258;61169;-79
2022/12/28 01:46:48;;;;;;;4.90;2.30;;;;;;;1.04;75.97;102061.63;108228;1258;72924;-79
2022/12/28 01:49:20;;;;;;;3.10;2.00;;;;;;;0.89;76.94;102068.30;108323;1258;69772;-79
2022/12/28 01:52:09;;;;;;;6.20;2.40;;;;;;;0.77;77.57;102070.84;108346;1254;68725;-79
2022/12/28 01:55:06;;;;;;;7.50;2.70;;;;;;;0.71;77.38;102070.56;108266;1260;73745;-80
2022/12/28 01:58:03;;;;;;;6.60;2.80;;;;;;;0.60;78.57;102069.27;108195;1257;59026;-79
2022/12/28 02:00:34;;;;;;;8.90;2.90;;;;;;;0.49;80.30;102068.86;108223;1260;58118;-80
2022/12/28 02:03:10;;;;;;;8.10;3.30;;;;;;;0.38;79.69;102073.59;108182;1257;73518;-80
2022/12/28 02:05:43;;;;;;;6.00;3.20;;;;;;;0.28;79.24;102074.71;108354;1262;69897;-80
2022/12/28 02:08:32;;;;;;;6.90;3.20;;;;;;;0.22;79.97;102077.49;108033;1261;66783;-78
2022/12/28 02:11:01;;;;;;;4.10;3.00;;;;;;;0.11;81.49;102080.33;108096;1256;73033;-78
2022/12/28 02:13:30;;;;;;;6.90;3.90;;;;;;;0.02;82.14;102083.96;108305;1264;59570;-79
2022/12/28 02:15:59;;;;;;;9.10;4.20;;;;;;;-0.06;80.89;102082.14;108156;1260;59963;-77
2022/12/28 02:18:28;;;;;;;8.50;4.20;;;;;;;-0.17;81.15;102085.81;108343;1254;72326;-78
2022/12/28 02:21:09;;;;;;;7.70;3.60;;;;;;;-0.28;80.08;102086.72;108492;1248;70324;-77
2022/12/28 02:23:56;;;;;;;8.50;2.30;;;;;;;-0.36;79.94;102088.13;108324;1257;70801;-79
2022/12/28 02:26:50;;;;;;;6.00;2.80;;;;;;;-0.38;79.45;102096.54;108419;1254;72125;-79
2022/12/28 02:29:48;;;;;;;3.30;2.20;;;;;;;-0.35;79.42;102102.33;108258;1261;58293;-80
2022/12/28 02:32:45;;;;;;;5.60;2.60;;;;;;;-0.28;78.90;102101.28;108246;1256;58787;-80
2022/12/28 02:35:37;;;;;;;5.40;2.30;;;;;;;-0.25;78.52;102099.38;108154;1264;71563;-77
2022/12/28 02:38:32;;;;;;;5.50;2.90;;;;;;;-0.22;78.16;102098.85;108441;1248;69485;-77
2022/12/28 02:41:10;;;;;;;4.20;2.50;;;;;;;-0.23;78.52;102106.20;108279;1258;70453;-79
2022/12/28 02:43:39;;;;;;;6.40;3.00;;;;;;;-0.27;78.77;102107.96;108145;1255;74170;-78
2022/12/28 02:52:36;;;;;;;7.00;2.80;;;;;;;-0.17;78.17;102107.55;108198;1261;72367;-82
2022/12/28 02:58:34;;;;;;;4.70;2.80;;;;;;;-0.24;78.34;102106.90;108267;1261;68119;-79
2022/12/28 03:01:39;;;;;;;4.60;2.80;;;;;;;-0.26;78.15;102104.02;108348;1255;71822;-77
2022/12/28 03:04:41;;;;;;;7.00;2.90;;;;;;;-0.30;78.70;102110.70;108249;1252;58169;-77
2022/12/28 03:10:23;;;;;;;7.40;3.00;;;;;;;-0.43;78.16;102117.11;108176;1257;72902;-78
2022/12/28 03:16:18;;;;;;;6.80;3.30;;;;;;;-0.44;78.63;102123.96;108263;1257;70416;-80
2022/12/28 03:33:11;;;;;;;7.20;3.10;;;;;;;-0.60;80.94;102135.14;108173;1255;68717;-78
2022/12/28 03:35:50;;;;;;;7.90;3.20;;;;;;;-0.67;81.75;102136.36;108189;1260;73731;-80
2022/12/28 03:38:28;;;;;;;5.90;3.50;;;;;;;-0.71;81.66;102138.44;108221;1260;60531;-80
2022/12/28 03:41:18;;;;;;;6.60;3.20;;;;;;;-0.76;81.22;102141.18;108117;1254;61576;-80
2022/12/28 03:43:55;;;;;;;5.60;2.90;;;;;;;-0.76;79.94;102138.61;108205;1254;73850;-81
2022/12/28 03:46:35;;;;;;;5.60;2.90;;;;;;;-0.78;79.70;102137.24;108257;1261;71503;-81
2022/12/28 03:49:04;;;;;;;5.10;2.80;;;;;;;-0.86;80.05;102139.83;108332;1263;68526;-80
2022/12/28 03:51:34;;;;;;;4.90;2.50;;;;;;;-0.87;80.55;102144.79;108067;1258;73819;-80
2022/12/28 03:54:15;;;;;;;5.60;2.40;;;;;;;-0.86;80.57;102145.48;108316;1254;62485;-81
2022/12/28 03:56:50;;;;;;;5.20;2.50;;;;;;;-0.82;80.92;102146.15;108181;1260;60938;-80
2022/12/28 03:59:21;;;;;;;8.30;2.50;;;;;;;-0.74;81.21;102147.51;108145;1258;72084;-81
2022/12/28 04:01:51;;;;;;;4.80;2.80;;;;;;;-0.71;81.29;102149.89;108290;1252;72210;-79
2022/12/28 04:04:20;;;;;;;5.40;2.60;;;;;;;-0.67;80.86;102153.48;108181;1258;70521;-79
2022/12/28 04:06:49;;;;;;;6.30;2.90;;;;;;;-0.73;81.01;102157.08;108310;1264;74189;-80
2022/12/28 04:09:18;;;;;;;4.80;2.40;;;;;;;-0.77;80.66;102157.26;108249;1254;58331;-79
2022/12/28 04:11:48;;;;;;;4.70;2.50;;;;;;;-0.82;79.56;102156.23;108212;1255;61208;-77
2022/12/28 04:14:23;;;;;;;5.30;2.50;;;;;;;-0.82;79.72;102163.60;108351;1257;73556;-80
2022/12/28 04:16:52;;;;;;;5.80;3.00;;;;;;;-0.85;79.44;102166.86;108393;1255;69875;-80
2022/12/28 04:19:21;;;;;;;5.30;3.00;;;;;;;-0.94;79.79;102170.98;108215;1255;68760;-82
2022/12/28 04:21:50;;;;;;;7.60;3.20;;;;;;;-1.06;80.47;102168.08;108135;1261;74239;-78
2022/12/28 04:24:19;;;;;;;7.80;3.00;;;;;;;-1.14;80.90;102174.42;108335;1260;62341;-78
2022/12/28 04:26:48;;;;;;;5.30;2.80;;;;;;;-1.22;81.97;102179.04;108305;1260;59924;-80
2022/12/28 04:29:17;;;;;;;5.60;3.30;;;;;;;-1.20;84.98;102182.63;108324;1257;71984;-80
2022/12/28 04:32:11;;;;;;;6.50;3.40;;;;;;;-1.25;84.77;102187.41;108473;1249;72048;-81
2022/12/28 04:34:40;;;;;;;11.00;4.50;;;;;;;-1.33;85.17;102187.59;108205;1259;70134;-83
2022/12/28 04:37:17;;;;;;;11.10;5.20;;;;;;;-1.44;85.70;102190.99;108307;1257;72880;-82
2022/12/28 04:39:46;;;;;;;8.40;4.10;;;;;;;-1.55;87.22;102193.37;108321;1253;61453;-81
2022/12/28 04:42:24;;;;;;;7.70;3.70;;;;;;;-1.57;89.00;102197.98;108363;1264;61506;-79
2022/12/28 04:44:53;;;;;;;10.70;5.00;;;;;;;-1.60;88.80;102200.89;108393;1256;73144;-80
2022/12/28 04:47:22;;;;;;;12.30;5.00;;;;;;;-1.65;90.25;102203.10;108506;1256;69407;-80
2022/12/28 04:49:51;;;;;;;7.70;4.40;;;;;;;-1.67;89.50;102206.52;108311;1264;68547;-81
2022/12/28 04:52:21;;;;;;;8.00;4.70;;;;;;;-1.70;87.73;102208.71;108350;1255;72158;-78
2022/12/28 04:54:50;;;;;;;6.60;4.30;;;;;;;-1.74;88.07;102212.13;108360;1252;62297;-79
2022/12/28 04:57:18;;;;;;;8.10;4.80;;;;;;;-1.80;87.20;102214.67;108214;1257;61102;-80
2022/12/28 04:59:47;;;;;;;8.10;4.40;;;;;;;-1.85;87.59;102212.95;108255;1261;72493;-79
2022/12/28 05:02:16;;;;;;;9.20;5.70;;;;;;;-1.88;88.69;102215.33;108332;1249;69507;-79
2022/12/28 05:04:45;;;;;;;13.20;6.40;;;;;;;-1.86;90.14;102226.61;108186;1260;67929;-80
2022/12/28 05:07:14;;;;;;;13.00;7.80;;;;;;;-1.85;90.35;102227.81;108261;1254;71460;-79
2022/12/28 05:09:43;;;;;;;9.70;6.10;;;;;;;-1.83;90.32;102227.48;108253;1256;61213;-79
2022/12/28 05:12:11;;;;;;;8.80;5.60;;;;;;;-1.79;91.23;102230.39;108242;1253;61004;-81
2022/12/28 05:14:41;;;;;;;10.00;5.60;;;;;;;-1.75;91.51;102233.48;108170;1258;73439;-80
2022/12/28 05:17:09;;;;;;;10.60;6.00;;;;;;;-1.73;92.05;102233.48;108392;1252;71998;-79
2022/12/28 05:19:38;;;;;;;13.70;7.60;;;;;;;-1.74;91.23;102236.55;108385;1254;68618;-80
2022/12/28 05:22:11;;;;;;;17.20;8.30;;;;;;;-1.74;92.62;102236.39;108354;1261;71739;-78
2022/12/28 05:24:40;;;;;;;;;;;;;;;-1.75;91.69;102237.75;108370;1258;61986;-80
2022/12/28 05:27:09;;;;;;;21.80;12.10;;;;;;;-1.70;91.96;102241.35;108389;1257;58436;-77
2022/12/28 05:29:38;;;;;;;18.30;10.20;;;;;;;-1.70;90.28;102239.30;108394;1254;74288;-78
2022/12/28 05:32:06;;;;;;;12.20;6.60;;;;;;;-1.69;89.43;102244.09;108521;1249;72068;-84
2022/12/28 05:34:35;;;;;;;7.10;5.00;;;;;;;-1.68;88.59;102241.20;108418;1249;70145;-82
2022/12/28 05:37:04;;;;;;;7.80;4.30;;;;;;;-1.65;88.55;102240.69;108236;1261;71797;-79
2022/12/28 05:39:33;;;;;;;8.90;4.90;;;;;;;-1.63;87.94;102235.56;108426;1256;58605;-82
2022/12/28 05:42:03;;;;;;;12.90;5.80;;;;;;;-1.52;87.41;102240.54;108401;1264;59519;-81
2022/12/28 05:44:32;;;;;;;10.40;5.40;;;;;;;-1.43;88.39;102246.88;108364;1257;74682;-79
2022/12/28 05:47:02;;;;;;;9.30;5.10;;;;;;;-1.30;87.84;102248.77;108541;1261;71851;-79
2022/12/28 05:49:31;;;;;;;8.60;4.70;;;;;;;-1.18;87.95;102257.68;108242;1252;68977;-79
2022/12/28 05:52:00;;;;;;;8.50;5.10;;;;;;;-1.05;87.99;102259.23;108455;1261;71047;-80
2022/12/28 05:54:29;;;;;;;14.70;5.30;;;;;;;-0.92;88.31;102254.27;108366;1257;57817;-82
2022/12/28 05:56:58;;;;;;;12.50;6.70;;;;;;;-0.80;87.91;102253.41;108467;1254;60399;-80
2022/12/28 05:59:27;;;;;;;17.10;7.40;;;;;;;-0.73;87.48;102255.46;108193;1257;74224;-81
2022/12/28 06:01:56;;;;;;;14.00;7.40;;;;;;;-0.69;88.07;102255.79;108416;1249;72460;-81
2022/12/28 06:04:25;;;;;;;11.30;7.40;;;;;;;-0.69;87.08;102252.03;108419;1254;70868;-83
2022/12/28 06:06:53;;;;;;;11.40;6.70;;;;;;;-0.59;88.46;102253.04;108351;1253;74009;-81
2022/12/28 06:09:22;;;;;;;12.60;6.60;;;;;;;-0.48;87.82;102259.36;108370;1264;60654;-83
2022/12/28 06:11:51;;;;;;;13.40;7.40;;;;;;;-0.40;87.97;102258.31;108351;1253;59367;-82
2022/12/28 06:14:20;;;;;;;7.30;5.00;;;;;;;-0.35;86.71;102260.52;108370;1258;71612;-82
2022/12/28 06:16:50;;;;;;;9.80;6.10;;;;;;;-0.32;85.00;102263.77;108427;1255;70227;-82
2022/12/28 06:19:19;;;;;;;13.00;6.50;;;;;;;-0.30;85.10;102265.82;108426;1254;69476;-84
2022/12/28 06:21:47;;;;;;;9.90;6.20;;;;;;;-0.28;84.97;102275.40;108232;1260;73535;-82
2022/12/28 06:24:17;;;;;;;11.90;7.70;;;;;;;-0.22;85.71;102277.10;108374;1263;58308;-81
2022/12/28 06:26:47;;;;;;;13.80;7.70;;;;;;;-0.14;87.27;102282.73;108445;1257;58896;-81
2022/12/28 06:29:18;;;;;;;12.00;7.10;;;;;;;-0.07;87.23;102281.68;108413;1252;72315;-83
2022/12/28 06:31:49;;;;;;;10.30;6.20;;;;;;;0.01;86.99;102276.69;108543;1252;70138;-83
2022/12/28 06:34:18;;;;;;;12.00;7.30;;;;;;;0.13;86.90;102281.26;108381;1260;70731;-84
2022/12/28 06:36:51;;;;;;;12.10;7.70;;;;;;;0.23;86.01;102283.45;108405;1253;71605;-82
2022/12/28 06:39:20;;;;;;;12.20;8.10;;;;;;;0.34;85.73;102290.42;108369;1258;59854;-81
2022/12/28 06:41:48;;;;;;;12.80;7.70;;;;;;;0.42;86.47;102296.73;108404;1264;60802;-84
2022/12/28 06:44:17;;;;;;;12.70;7.00;;;;;;;0.41;84.97;102295.54;108380;1254;74612;-79
2022/12/28 06:46:46;;;;;;;22.20;7.60;;;;;;;0.48;84.09;102299.61;108525;1248;70611;-82
2022/12/28 06:49:15;;;;;;;10.60;5.40;;;;;;;0.54;83.39;102299.41;108369;1254;67752;-82
2022/12/28 06:51:44;;;;;;;7.40;4.80;;;;;;;0.61;80.73;102299.54;108361;1257;72177;-80
2022/12/28 06:54:13;;;;;;;15.50;5.90;;;;;;;0.65;79.22;102304.48;108478;1249;62115;-83
2022/12/28 06:56:41;;;;;;;11.40;6.10;;;;;;;0.55;78.82;102305.23;108277;1257;61440;-85
2022/12/28 06:59:10;;;;;;;14.30;7.80;;;;;;;0.49;81.86;102306.98;108355;1248;72150;-81
2022/12/28 07:01:43;;;;;;;15.70;8.70;;;;;;;0.50;82.69;102309.70;108419;1255;70165;-81
2022/12/28 07:04:12;;;;;;;15.20;8.00;;;;;;;0.52;83.22;102316.73;108170;1263;67758;-84
2022/12/28 07:06:43;;;;;;;15.90;7.80;;;;;;;0.60;83.00;102319.09;108383;1254;71826;-82
2022/12/28 07:09:14;;;;;;;18.10;8.00;;;;;;;0.69;82.45;102317.33;108156;1256;62086;-82
2022/12/28 07:11:44;;;;;;;16.20;8.20;;;;;;;0.81;82.70;102322.23;108292;1257;60683;-85
2022/12/28 07:14:13;;;;;;;12.10;7.60;;;;;;;0.86;82.29;102322.20;108307;1258;72066;-83
2022/12/28 07:16:43;;;;;;;15.70;9.40;;;;;;;0.85;81.29;102327.52;108433;1252;71005;-85
2022/12/28 07:19:12;;;;;;;15.00;8.60;;;;;;;0.86;81.51;102323.41;108349;1257;67950;-81
2022/12/28 07:21:41;;;;;;;19.50;10.40;;;;;;;0.92;80.80;102321.64;108328;1254;71194;-85
2022/12/28 07:24:10;;;;;;;17.40;9.40;;;;;;;0.98;80.36;102320.23;108359;1254;60407;-79
2022/12/28 07:26:38;;;;;;;17.40;8.80;;;;;;;1.05;79.65;102319.66;108242;1254;60115;-82
2022/12/28 07:29:08;;;;;;;19.40;9.20;;;;;;;1.14;79.66;102316.69;108374;1253;72680;-77
2022/12/28 07:31:39;;;;;;;17.00;9.40;;;;;;;1.26;79.47;102317.63;108390;1250;72372;-83
2022/12/28 07:34:14;;;;;;;15.30;9.00;;;;;;;1.34;79.02;102317.20;108264;1257;68859;-81
2022/12/28 07:36:43;;;;;;;16.90;10.00;;;;;;;1.43;78.71;102312.84;108262;1254;73676;-82
2022/12/28 07:39:12;;;;;;;18.10;9.30;;;;;;;1.49;80.02;102310.73;108350;1256;60633;-75
2022/12/28 07:41:41;;;;;;;17.90;8.60;;;;;;;1.57;77.54;102312.02;108401;1260;60002;-79
2022/12/28 07:44:10;;;;;;;18.00;9.00;;;;;;;1.65;76.93;102310.39;108323;1253;72345;-80
2022/12/28 07:46:39;;;;;;;17.40;9.00;;;;;;;1.75;76.63;102313.74;108542;1259;70199;-80
2022/12/28 07:49:08;;;;;;;25.70;12.60;;;;;;;1.85;76.62;102311.73;108218;1254;70754;-74
2022/12/28 07:51:38;;;;;;;23.70;12.00;;;;;;;1.79;75.07;102314.03;108374;1257;71522;-74
2022/12/28 07:54:06;;;;;;;32.40;10.50;;;;;;;1.76;72.42;102313.56;108195;1249;60310;-75
2022/12/28 07:56:35;;;;;;;20.90;10.80;;;;;;;1.72;72.55;102317.55;108377;1257;61448;-73
2022/12/28 07:59:09;;;;;;;16.40;8.50;;;;;;;1.99;73.05;102316.58;108377;1257;72599;-76
2022/12/28 08:01:38;;;;;;;22.10;11.50;;;;;;;2.10;71.99;102317.83;108364;1249;71350;-78
2022/12/28 08:04:12;;;;;;;15.60;7.50;;;;;;;2.05;72.63;102316.50;108114;1254;70821;-78
2022/12/28 08:06:43;;;;;;;14.90;7.90;;;;;;;2.09;73.09;102314.22;108059;1260;72246;-82
2022/12/28 08:09:14;;;;;;;12.30;7.60;;;;;;;2.14;73.04;102306.95;108172;1257;59913;-79
2022/12/28 08:11:45;;;;;;;12.90;5.90;;;;;;;2.21;73.44;102305.50;108167;1250;60398;-80
2022/12/28 08:14:14;;;;;;;19.20;8.10;;;;;;;2.38;72.06;102312.49;107912;1257;74758;-79
2022/12/28 08:16:44;;;;;;;24.20;8.30;;;;;;;2.46;71.35;102312.06;108109;1250;71604;-77
2022/12/28 08:19:13;;;;;;;20.60;7.50;;;;;;;2.55;70.10;102315.04;108134;1255;70185;-80
2022/12/28 08:21:44;;;;;;;15.40;7.20;;;;;;;2.75;70.85;102313.55;108199;1248;74128;-84
2022/12/28 08:24:18;;;;;;;15.50;7.40;;;;;;;2.87;69.09;102317.52;107997;1260;60933;-84
2022/12/28 08:26:48;;;;;;;11.70;6.20;;;;;;;3.03;69.52;102316.40;108210;1254;60758;-77
2022/12/28 08:29:21;;;;;;;21.00;8.30;;;;;;;3.16;70.20;102318.60;108107;1260;74844;-83
2022/12/28 08:31:50;;;;;;;16.90;8.00;;;;;;;3.29;70.68;102316.34;108233;1254;72537;-79
2022/12/28 08:34:25;;;;;;;19.70;9.40;;;;;;;3.40;68.54;102311.84;108109;1259;70618;-86
2022/12/28 08:36:55;;;;;;;25.50;9.00;;;;;;;3.49;68.89;102301.35;107913;1257;74080;-89
2022/12/28 08:39:24;;;;;;;18.00;8.10;;;;;;;3.56;68.20;102303.11;108224;1256;58643;-87
2022/12/28 08:41:53;;;;;;;17.80;8.70;;;;;;;3.64;68.61;102309.52;108220;1253;60345;-85
2022/12/28 08:44:22;;;;;;;16.50;8.80;;;;;;;3.64;67.08;102301.45;108241;1254;75020;-87
2022/12/28 08:46:53;;;;;;;14.90;7.70;;;;;;;3.60;67.37;102297.89;108380;1259;63599;-87
2022/12/28 08:49:22;;;;;;;14.20;7.30;;;;;;;3.54;66.76;102296.27;108102;1259;59550;-85
2022/12/28 08:51:51;;;;;;;14.90;6.80;;;;;;;3.54;65.52;102297.65;108295;1257;62972;-86
2022/12/28 08:54:20;;;;;;;22.90;8.60;;;;;;;3.47;65.93;102290.70;108098;1255;57794;-87
2022/12/28 08:56:49;;;;;;;19.30;8.70;;;;;;;3.44;66.52;102287.31;108247;1256;57639;-81
2022/12/28 08:59:19;;;;;;;17.20;8.80;;;;;;;3.48;66.77;102288.63;108335;1257;73102;-86
2022/12/28 09:01:47;;;;;;;19.00;8.70;;;;;;;3.59;66.83;102288.42;108308;1255;72045;-87
2022/12/28 09:04:21;;;;;;;17.30;8.90;;;;;;;3.73;65.92;102289.38;108103;1260;68760;-88
2022/12/28 09:06:49;;;;;;;;;;;;;;;3.90;67.09;102287.66;108017;1266;73031;-84
2022/12/28 09:09:19;;;;;;;17.10;8.30;;;;;;;4.01;66.20;102285.05;108054;1260;59759;-82
2022/12/28 09:11:49;;;;;;;19.30;8.60;;;;;;;4.15;66.87;102281.12;107990;1259;58870;-85
2022/12/28 09:14:18;;;;;;;21.20;10.20;;;;;;;4.27;64.44;102276.23;108372;1250;73897;-86
2022/12/28 09:16:53;;;;;;;15.90;8.80;;;;;;;4.18;64.08;102278.83;108308;1254;72394;-86
2022/12/28 09:19:22;;;;;;;25.30;9.90;;;;;;;4.25;66.02;102283.17;108080;1256;69843;-88
2022/12/28 09:21:51;;;;;;;17.10;8.40;;;;;;;4.34;64.58;102280.39;107935;1263;73763;-88
2022/12/28 09:24:22;;;;;;;14.90;6.90;;;;;;;4.38;62.34;102283.92;107977;1266;60642;-86
2022/12/28 09:26:54;;;;;;;11.00;6.00;;;;;;;4.39;61.75;102284.43;108057;1254;62480;-87
2022/12/28 09:29:23;;;;;;;11.70;5.60;;;;;;;4.40;60.63;102284.41;108109;1256;74067;-82
2022/12/28 09:31:52;;;;;;;12.00;6.40;;;;;;;4.46;60.37;102279.95;108267;1255;61220;-80
2022/12/28 09:34:21;;;;;;;12.40;6.10;;;;;;;4.55;61.19;102275.11;107988;1260;60211;-86
2022/12/28 09:37:06;;;;;;;12.30;6.40;;;;;;;4.66;59.92;102281.58;108152;1257;73578;-86
2022/12/28 09:39:35;;;;;;;13.50;6.40;;;;;;;4.71;60.21;102273.02;108207;1251;57686;-88
2022/12/28 09:42:17;;;;;;;11.60;5.50;;;;;;;4.76;60.57;102272.55;108266;1254;58064;-83
2022/12/28 09:45:08;;;;;;;14.50;6.50;;;;;;;4.84;59.64;102270.30;108167;1260;73504;-84
2022/12/28 09:47:39;;;;;;;12.10;6.20;;;;;;;4.90;59.64;102268.43;108085;1260;71913;-84
2022/12/28 09:50:34;;;;;;;12.50;6.60;;;;;;;4.95;59.31;102263.46;108160;1260;70217;-84
2022/12/28 09:53:28;;;;;;;15.60;7.70;;;;;;;4.99;59.46;102266.98;108143;1254;74467;-86
2022/12/28 09:56:35;;;;;;;12.70;5.40;;;;;;;5.05;59.91;102263.05;108131;1261;60736;-86
2022/12/28 09:59:06;;;;;;;10.80;5.00;;;;;;;5.15;58.58;102254.69;107958;1257;62017;-85
2022/12/28 10:01:39;;;;;;;14.60;7.50;;;;;;;5.08;59.36;102253.13;108144;1254;75201;-83
2022/12/28 10:04:11;;;;;;;15.00;6.80;;;;;;;5.03;60.03;102252.58;108217;1251;71670;-85
2022/12/28 10:06:43;;;;;;;9.70;6.10;;;;;;;5.13;59.85;102253.70;108141;1253;59024;-86
2022/12/28 10:09:30;;;;;;;14.00;7.30;;;;;;;5.13;60.07;102246.46;108228;1262;73956;-85
2022/12/28 10:12:12;;;;;;;17.70;7.60;;;;;;;5.12;60.59;102245.97;108191;1252;59836;-85
2022/12/28 10:14:44;;;;;;;11.50;6.50;;;;;;;5.20;60.82;102242.47;108243;1258;60856;-86
2022/12/28 10:17:15;;;;;;;10.50;6.40;;;;;;;5.30;60.17;102247.05;108210;1263;72994;-85
2022/12/28 10:19:46;;;;;;;9.90;5.60;;;;;;;5.36;59.20;102250.16;108336;1251;61295;-84
2022/12/28 10:22:21;;;;;;;19.80;5.60;;;;;;;5.39;58.51;102246.98;107055;1256;59369;-86
2022/12/28 10:24:52;;;;;;;13.00;6.30;;;;;;;5.45;58.25;102251.15;108131;1260;73222;-82
2022/12/28 10:27:29;;;;;;;13.40;6.20;;;;;;;5.52;58.05;102256.66;108145;1260;60229;-84
2022/12/28 10:30:01;;;;;;;12.20;5.80;;;;;;;5.68;58.22;102261.05;108273;1253;58222;-83
2022/12/28 10:32:59;;;;;;;14.50;6.20;;;;;;;5.87;56.67;102256.75;108333;1253;63706;-84
2022/12/28 10:35:48;;;;;;;10.80;6.00;;;;;;;6.01;56.90;102252.05;108403;1252;60785;-83
2022/12/28 10:38:32;;;;;;;15.10;6.50;;;;;;;6.20;57.26;102243.02;108215;1255;69587;-86
2022/12/28 10:41:09;;;;;;;11.40;6.10;;;;;;;6.38;56.29;102248.02;108200;1263;74322;-80
2022/12/28 10:43:41;;;;;;;13.50;6.00;;;;;;;6.61;57.08;102243.14;108130;1262;58339;-80
2022/12/28 10:46:22;;;;;;;10.90;6.40;;;;;;;6.82;56.43;102238.33;108240;1251;58290;-79
2022/12/28 10:48:59;;;;;;;13.30;6.30;;;;;;;6.99;55.12;102233.60;108328;1254;74472;-80
2022/12/28 10:51:29;;;;;;;9.30;6.10;;;;;;;7.09;54.15;102228.59;108383;1250;69421;-82
2022/12/28 10:53:58;;;;;;;10.90;5.40;;;;;;;7.24;53.00;102229.14;108478;1257;61025;-84
2022/12/28 10:56:32;;;;;;;8.40;4.70;;;;;;;7.33;53.09;102225.20;108395;1254;73758;-80
2022/12/28 10:59:11;;;;;;;9.00;4.40;;;;;;;7.48;51.96;102227.27;108219;1252;58537;-83
2022/12/28 11:01:42;;;;;;;8.80;4.90;;;;;;;7.53;50.35;102218.77;108235;1254;60414;-82
2022/12/28 11:04:24;;;;;;;9.70;4.50;;;;;;;7.59;50.53;102216.63;108283;1264;73516;-82
2022/12/28 11:06:59;;;;;;;8.40;4.40;;;;;;;7.95;47.79;102212.86;108302;1251;60631;-83
2022/12/28 11:09:34;;;;;;;10.00;4.80;;;;;;;7.96;48.19;102204.17;108293;1261;60113;-85
2022/12/28 11:12:24;;;;;;;9.10;4.80;;;;;;;7.98;48.05;102201.14;108293;1254;72877;-87
2022/12/28 11:14:53;;;;;;;11.00;4.00;;;;;;;8.24;46.50;102203.79;108465;1249;58250;-84
2022/12/28 11:17:28;;;;;;;7.50;3.90;;;;;;;8.04;46.78;102208.05;108456;1253;58509;-85
2022/12/28 11:20:06;;;;;;;8.60;3.70;;;;;;;8.41;47.85;102203.85;108487;1253;73409;-83
2022/12/28 11:22:36;;;;;;;7.30;3.60;;;;;;;8.67;46.23;102202.80;108493;1252;61589;-87
2022/12/28 11:25:06;;;;;;;5.80;3.30;;;;;;;8.69;45.79;102191.97;108062;1257;59917;-85
2022/12/28 11:27:35;;;;;;;7.20;4.20;;;;;;;8.97;44.28;102192.89;108242;1264;72256;-87
2022/12/28 11:30:12;;;;;;;8.40;4.40;;;;;;;9.14;43.45;102191.98;108038;1259;57695;-91
2022/12/28 11:32:54;;;;;;;7.00;3.90;;;;;;;9.29;45.64;102192.04;108328;1257;60262;-84
2022/12/28 11:35:29;;;;;;;9.70;4.50;;;;;;;9.60;43.74;102191.88;108404;1256;73921;-85
2022/12/28 11:38:04;;;;;;;7.90;4.10;;;;;;;9.73;44.84;102194.61;108531;1248;61296;-91
2022/12/28 11:40:47;;;;;;;9.60;4.70;;;;;;;9.97;44.77;102192.10;108345;1254;69674;-85
2022/12/28 11:43:29;;;;;;;8.70;3.20;;;;;;;10.16;43.09;102190.73;108245;1262;74047;-86
2022/12/28 11:45:59;;;;;;;5.20;2.50;;;;;;;10.21;41.80;102189.78;108311;1254;61858;-86
2022/12/28 11:48:40;;;;;;;7.10;3.30;;;;;;;10.31;42.53;102182.20;108180;1264;57775;-84
2022/12/28 11:51:16;;;;;;;8.00;1.60;;;;;;;10.07;40.91;102188.85;108269;1248;74284;-84
2022/12/28 11:53:50;;;;;;;4.00;2.00;;;;;;;10.12;39.26;102197.70;108296;1249;71980;-85
2022/12/28 11:56:22;;;;;;;3.40;1.90;;;;;;;9.91;39.12;102196.94;108248;1254;60018;-87
2022/12/28 11:59:02;;;;;;;4.10;1.90;;;;;;;9.99;39.15;102190.09;108043;1254;73049;-83
2022/12/28 12:01:33;;;;;;;3.10;1.80;;;;;;;9.77;38.87;102187.98;108354;1260;58290;-86
2022/12/28 12:04:02;;;;;;;2.60;1.60;;;;;;;9.59;38.94;102182.20;108402;1253;58348;-81
2022/12/28 12:06:43;;;;;;;7.60;2.40;;;;;;;9.20;39.03;102178.19;108458;1252;63358;-80
2022/12/28 12:09:26;;;;;;;5.30;2.20;;;;;;;9.07;38.98;102177.52;108692;1247;60566;-83
2022/12/28 12:12:05;;;;;;;3.50;1.80;;;;;;;8.93;38.52;102181.07;108312;1254;68945;-81
2022/12/28 12:15:14;;;;;;;5.20;1.70;;;;;;;9.12;39.92;102184.27;108319;1257;73196;-78
2022/12/28 12:18:00;;;;;;;3.80;1.90;;;;;;;9.43;38.98;102186.75;108409;1254;61415;-84